Time;durP1;ratioP1;P1;durP2;ratioP2;P2;SDS_P1;SDS_P2;PMS_P1;PMS_P2;Temp;Humidity;BMP_temperature;BMP_pressure;BME280_temperature;BME280_humidity;BME280_pressure;Samples;Min_cycle;Max_cycle;Signal;HPM_P1;HPM_P2
2022/12/07 00:01:46;;;;;;;12.05;6.22;;;5.70;1.00;;;;;;5089812;28;20378;-60
2022/12/07 00:04:13;;;;;;;14.60;7.65;;;4.90;1.00;;;;;;5089076;28;20429;-60
2022/12/07 00:06:42;;;;;;;13.77;6.67;;;5.20;1.00;;;;;;5089691;28;20386;-60
2022/12/07 00:09:10;;;;;;;14.45;7.10;;;5.10;1.00;;;;;;5089773;28;20381;-60
2022/12/07 00:11:36;;;;;;;12.38;6.75;;;5.10;1.00;;;;;;5089469;28;20423;-60
2022/12/07 00:14:05;;;;;;;16.95;7.30;;;5.30;99.90;;;;;;5089842;28;20386;-60
2022/12/07 00:16:32;;;;;;;14.00;6.90;;;6.10;99.90;;;;;;5089044;28;20432;-60
2022/12/07 00:18:58;;;;;;;14.63;6.70;;;6.20;99.90;;;;;;5089826;28;20378;-60
2022/12/07 00:21:29;;;;;;;17.40;7.45;;;5.40;99.90;;;;;;5088883;28;20381;-60
2022/12/07 00:23:56;;;;;;;16.23;8.00;;;6.30;99.90;;;;;;5089758;28;20402;-61
2022/12/07 00:26:27;;;;;;;18.10;8.18;;;5.00;99.90;;;;;;5089029;28;20382;-60
2022/12/07 00:28:55;;;;;;;19.25;7.57;;;6.60;99.90;;;;;;5089729;28;20426;-60
2022/12/07 00:31:25;;;;;;;20.17;7.85;;;5.00;99.90;;;;;;5089000;28;20402;-60
2022/12/07 00:33:51;;;;;;;16.63;6.73;;;4.90;99.90;;;;;;5090064;28;20868;-59
2022/12/07 00:36:19;;;;;;;13.23;6.35;;;5.50;99.90;;;;;;5088630;28;20414;-60
2022/12/07 00:38:45;;;;;;;15.02;6.70;;;4.90;99.90;;;;;;5090514;28;20457;-59
2022/12/07 00:41:14;;;;;;;15.93;7.20;;;4.90;99.90;;;;;;5089583;28;20462;-60
2022/12/07 00:43:40;;;;;;;16.33;6.68;;;4.90;99.90;;;;;;5089938;28;20426;-59
2022/12/07 00:46:06;;;;;;;16.30;6.70;;;4.80;99.90;;;;;;5091791;28;20374;-59
2022/12/07 00:48:32;;;;;;;16.20;6.80;;;4.80;99.90;;;;;;5093115;28;20877;-60
2022/12/07 00:50:58;;;;;;;16.27;6.97;;;6.00;99.90;;;;;;5093663;28;20473;-59
2022/12/07 00:53:24;;;;;;;16.37;6.63;;;6.40;99.90;;;;;;5092651;28;20375;-60
2022/12/07 00:55:50;;;;;;;15.90;6.72;;;4.70;99.90;;;;;;5093161;28;20790;-60
2022/12/07 00:58:15;;;;;;;15.60;7.05;;;4.70;99.90;;;;;;5092688;28;20381;-60
2022/12/07 01:00:42;;;;;;;12.73;6.53;;;4.60;99.90;;;;;;5093221;28;20424;-60
2022/12/07 01:03:11;;;;;;;12.40;6.60;;;6.60;99.90;;;;;;5093435;28;20492;-60
2022/12/07 01:05:37;;;;;;;14.13;6.35;;;4.70;99.90;;;;;;5092491;28;20382;-60
2022/12/07 01:08:03;;;;;;;13.75;6.47;;;5.70;1.00;;;;;;5093358;28;20769;-60
2022/12/07 01:10:30;;;;;;;14.07;6.53;;;4.70;99.90;;;;;;5093020;28;20413;-60
2022/12/07 01:12:56;;;;;;;12.32;5.90;;;4.70;99.90;;;;;;5093268;28;20439;-60
2022/12/07 01:15:22;;;;;;;14.00;6.77;;;4.70;74.80;;;;;;5092803;28;20780;-60
2022/12/07 01:17:47;;;;;;;14.90;6.43;;;4.60;1.00;;;;;;5093626;28;20464;-60
2022/12/07 01:20:15;;;;;;;16.35;6.60;;;5.20;12.70;;;;;;5092350;28;20428;-60
2022/12/07 01:22:42;;;;;;;13.10;6.57;;;4.50;99.90;;;;;;5092787;28;20374;-60
2022/12/07 01:25:09;;;;;;;13.23;6.68;;;6.10;99.90;;;;;;5093514;28;20381;-60
2022/12/07 01:27:35;;;;;;;15.38;6.53;;;5.70;99.90;;;;;;5091880;28;20431;-60
2022/12/07 01:30:03;;;;;;;13.68;6.00;;;4.70;99.70;;;;;;5092774;28;20381;-59
2022/12/07 01:32:29;;;;;;;14.70;6.32;;;4.70;6.60;;;;;;5092050;28;20370;-60
2022/12/07 01:34:55;;;;;;;14.77;6.63;;;5.80;1.00;;;;;;5092931;28;20410;-59
2022/12/07 01:37:21;;;;;;;14.23;5.93;;;4.70;1.00;;;;;;5092372;28;20461;-59
2022/12/07 01:39:49;;;;;;;13.77;6.15;;;4.80;1.00;;;;;;5092882;28;20374;-60
2022/12/07 01:42:15;;;;;;;14.25;6.50;;;4.70;1.00;;;;;;5092308;28;20382;-63
2022/12/07 01:45:18;;;;;;;13.40;6.05;;;4.70;1.00;;;;;;5092494;28;20481;-59
2022/12/07 01:47:53;;;;;;;14.15;6.55;;;4.70;1.00;;;;;;5092783;28;20841;-59
2022/12/07 01:50:20;;;;;;;15.70;7.00;;;5.00;1.00;;;;;;5091337;28;20374;-60
2022/12/07 01:52:49;;;;;;;15.45;6.63;;;5.20;26.90;;;;;;5091969;28;20870;-60
2022/12/07 01:55:16;;;;;;;23.48;6.80;;;4.80;1.00;;;;;;5092370;28;20377;-60
2022/12/07 01:57:46;;;;;;;12.37;5.80;;;4.80;1.00;;;;;;5092669;28;20369;-59
2022/12/07 02:00:13;;;;;;;13.70;6.82;;;6.50;42.60;;;;;;5091350;28;20374;-61
2022/12/07 02:03:01;;;;;;;14.35;6.65;;;4.90;1.00;;;;;;5092023;28;20442;-59
2022/12/07 02:05:27;;;;;;;15.60;7.30;;;4.90;1.00;;;;;;5091747;28;20398;-60
2022/12/07 02:07:55;;;;;;;14.95;6.40;;;5.00;1.00;;;;;;5092086;28;20465;-60
2022/12/07 02:10:29;;;;;;;17.63;6.82;;;5.90;1.00;;;;;;5091405;28;20401;-60
2022/12/07 02:13:09;;;;;;;12.80;6.18;;;4.80;1.00;;;;;;5092544;28;20373;-60
2022/12/07 02:15:54;;;;;;;18.90;6.40;;;4.70;99.90;;;;;;5091414;28;20423;-60
2022/12/07 02:18:31;;;;;;;15.10;7.20;;;4.60;99.90;;;;;;5091811;28;20455;-60
2022/12/07 02:21:20;;;;;;;13.87;6.70;;;4.60;99.90;;;;;;5092161;28;20400;-60
2022/12/07 02:24:07;;;;;;;15.10;6.05;;;4.50;99.90;;;;;;5091783;28;20459;-60
2022/12/07 02:26:32;;;;;;;16.30;7.03;;;4.50;1.00;;;;;;5091420;28;20672;-60
2022/12/07 02:29:09;;;;;;;16.33;6.27;;;4.40;1.00;;;;;;5092128;28;20398;-60
2022/12/07 02:31:42;;;;;;;14.07;6.80;;;4.40;1.00;;;;;;5091426;28;20459;-60
2022/12/07 02:34:51;;;;;;;16.30;6.40;;;4.40;1.00;;;;;;5091610;28;20393;-60
2022/12/07 02:37:38;;;;;;;14.37;6.80;;;4.40;1.00;;;;;;5084887;28;20859;-63
2022/12/07 02:40:11;;;;;;;13.80;6.50;;;4.40;1.00;;;;;;5091689;28;20374;-59
2022/12/07 02:43:22;;;;;;;13.90;6.00;;;5.30;1.00;;;;;;5090957;28;20370;-60
2022/12/07 02:45:51;;;;;;;13.48;6.00;;;4.50;1.00;;;;;;5067075;28;20736;-59
2022/12/07 02:48:19;;;;;;;14.38;5.90;;;4.50;1.00;;;;;;5090810;28;20370;-59
2022/12/07 02:50:52;;;;;;;15.30;5.82;;;4.50;1.00;;;;;;5091957;28;20368;-59
2022/12/07 02:53:38;;;;;;;13.20;6.50;;;4.50;99.90;;;;;;5091068;28;20378;-60
2022/12/07 02:56:22;;;;;;;11.82;5.25;;;4.60;99.90;;;;;;5091822;28;20386;-60
2022/12/07 02:59:03;;;;;;;14.45;5.95;;;4.50;99.90;;;;;;5091599;28;20461;-59
2022/12/07 03:01:48;;;;;;;15.68;6.45;;;4.40;99.90;;;;;;5090577;28;20370;-60
2022/12/07 03:04:32;;;;;;;14.02;6.25;;;4.40;99.90;;;;;;5090461;28;20467;-62
2022/12/07 03:07:24;;;;;;;13.87;6.33;;;4.40;1.00;;;;;;5091683;28;20388;-59
2022/12/07 03:09:57;;;;;;;14.70;7.40;;;4.30;99.90;;;;;;5077031;28;20504;-59
2022/12/07 03:12:31;;;;;;;14.35;5.85;;;4.30;1.00;;;;;;5090302;28;20391;-59
2022/12/07 03:15:03;;;;;;;13.95;6.25;;;4.20;1.00;;;;;;5091218;28;20729;-59
2022/12/07 03:17:31;;;;;;;13.35;6.15;;;5.00;1.00;;;;;;5090491;28;20465;-59
2022/12/07 03:20:00;;;;;;;15.17;5.80;;;4.20;1.00;;;;;;5090772;28;20384;-59
2022/12/07 03:22:30;;;;;;;13.88;5.78;;;4.20;1.00;;;;;;5090083;28;20373;-59
2022/12/07 03:25:04;;;;;;;15.05;6.07;;;4.10;1.00;;;;;;5090837;28;20402;-59
2022/12/07 03:27:36;;;;;;;14.70;6.65;;;4.20;1.00;;;;;;5089953;28;20401;-59
2022/12/07 03:30:21;;;;;;;13.43;6.13;;;4.20;1.00;;;;;;5091209;28;20909;-59
2022/12/07 03:33:18;;;;;;;13.50;6.00;;;4.30;1.00;;;;;;5072872;28;20392;-59
2022/12/07 03:35:51;;;;;;;13.50;6.20;;;4.40;1.00;;;;;;5090495;28;20400;-59
2022/12/07 03:38:33;;;;;;;13.65;6.75;;;4.30;99.90;;;;;;5090165;28;20851;-59
2022/12/07 03:41:11;;;;;;;12.05;6.05;;;4.40;1.00;;;;;;5090974;28;20379;-59
2022/12/07 03:43:37;;;;;;;16.40;7.07;;;4.40;1.00;;;;;;5089671;28;20786;-59
2022/12/07 03:46:17;;;;;;;14.63;6.07;;;6.10;99.90;;;;;;5090596;28;20893;-59
2022/12/07 03:49:00;;;;;;;18.13;7.07;;;4.40;99.90;;;;;;5090617;28;20377;-58
2022/12/07 03:51:33;;;;;;;13.77;6.50;;;4.40;99.90;;;;;;5090304;28;20420;-59
2022/12/07 03:54:16;;;;;;;17.77;7.30;;;4.30;99.90;;;;;;5090437;28;20370;-59
2022/12/07 03:56:44;;;;;;;15.90;6.13;;;4.20;99.90;;;;;;5090865;28;20456;-59
2022/12/07 03:59:11;;;;;;;13.63;6.77;;;6.00;99.90;;;;;;5090748;28;20378;-59
2022/12/07 04:01:36;;;;;;;14.50;6.85;;;4.50;99.90;;;;;;5089711;28;20381;-59
2022/12/07 04:04:02;;;;;;;14.07;6.30;;;5.90;99.90;;;;;;5090358;28;20426;-59
2022/12/07 04:06:27;;;;;;;12.18;5.43;;;4.30;1.00;;;;;;5089739;28;20385;-58
2022/12/07 04:08:53;;;;;;;14.30;6.53;;;4.00;41.30;;;;;;5090110;28;20839;-59
2022/12/07 04:11:19;;;;;;;15.15;7.03;;;3.90;99.90;;;;;;5089827;28;20416;-59
2022/12/07 04:16:29;;;;;;;16.42;7.13;;;3.90;99.90;;;;;;5089546;28;20424;-59
2022/12/07 04:18:54;;;;;;;18.40;7.17;;;3.90;99.90;;;;;;5090449;28;20378;-59
2022/12/07 04:21:20;;;;;;;14.98;6.60;;;5.70;99.90;;;;;;5088773;28;20464;-59
2022/12/07 04:23:45;;;;;;;14.93;6.77;;;3.90;99.90;;;;;;5090103;28;20458;-59
2022/12/07 04:26:11;;;;;;;14.00;5.75;;;3.90;99.90;;;;;;5090181;28;20392;-59
2022/12/07 04:28:36;;;;;;;14.20;6.20;;;3.90;99.90;;;;;;5089660;28;20373;-59
2022/12/07 04:31:02;;;;;;;12.20;5.47;;;4.00;99.90;;;;;;5090038;28;20861;-59
2022/12/07 04:33:28;;;;;;;14.23;6.20;;;4.00;99.90;;;;;;5089688;28;20401;-58
2022/12/07 04:35:53;;;;;;;14.70;6.20;;;4.00;99.90;;;;;;5089435;28;20414;-59
2022/12/07 04:38:19;;;;;;;15.00;6.38;;;4.10;99.90;;;;;;5089510;28;20375;-59
2022/12/07 04:40:44;;;;;;;14.67;6.97;;;4.20;1.00;;;;;;5090072;28;20516;-60
2022/12/07 04:43:10;;;;;;;15.93;6.70;;;5.20;1.00;;;;;;5089813;28;20410;-59
2022/12/07 04:45:35;;;;;;;14.57;6.40;;;5.90;1.00;;;;;;5089432;28;20370;-59
2022/12/07 04:48:01;;;;;;;14.45;6.30;;;4.10;99.90;;;;;;5090257;28;20374;-59
2022/12/07 04:50:27;;;;;;;15.83;6.40;;;4.10;99.90;;;;;;5089092;28;20382;-58
2022/12/07 04:52:52;;;;;;;13.07;6.45;;;4.10;99.90;;;;;;5089734;28;20383;-59
2022/12/07 04:55:18;;;;;;;14.20;6.83;;;4.10;99.90;;;;;;5088960;28;20839;-63
2022/12/07 04:57:43;;;;;;;16.10;7.03;;;4.10;1.00;;;;;;5089551;28;20401;-58
2022/12/07 05:00:09;;;;;;;13.98;6.05;;;4.20;99.90;;;;;;5089886;28;20381;-59
2022/12/07 05:02:35;;;;;;;15.35;7.07;;;4.20;99.90;;;;;;5089061;28;20675;-61
2022/12/07 05:05:01;;;;;;;16.00;6.90;;;4.30;99.90;;;;;;5088981;28;20445;-59
2022/12/07 05:07:26;;;;;;;17.70;6.75;;;4.30;99.90;;;;;;5088813;28;20390;-59
2022/12/07 05:09:52;;;;;;;16.37;7.37;;;4.30;99.90;;;;;;5089543;28;20394;-59
2022/12/07 05:12:18;;;;;;;16.77;7.53;;;4.30;1.00;;;;;;5088906;28;20805;-64
2022/12/07 05:14:43;;;;;;;18.50;7.90;;;4.20;1.00;;;;;;5089667;28;20381;-60
2022/12/07 05:17:09;;;;;;;14.40;7.00;;;4.20;1.00;;;;;;5089962;28;20379;-60
2022/12/07 05:19:34;;;;;;;14.77;6.95;;;4.10;1.00;;;;;;5088765;28;20477;-60
2022/12/07 05:22:00;;;;;;;14.13;6.70;;;5.30;99.90;;;;;;5089579;28;20409;-60
2022/12/07 05:24:25;;;;;;;16.52;6.75;;;4.90;1.00;;;;;;5088725;28;20414;-60
2022/12/07 05:26:51;;;;;;;18.63;8.20;;;4.00;1.00;;;;;;5089208;28;20383;-59
2022/12/07 05:29:17;;;;;;;16.27;7.30;;;4.10;99.90;;;;;;5089006;28;20366;-63
2022/12/07 05:31:43;;;;;;;15.70;7.03;;;3.90;99.90;;;;;;5072044;28;20794;-59
2022/12/07 05:34:10;;;;;;;17.10;7.45;;;3.90;1.00;;;;;;5092632;28;20413;-59
2022/12/07 05:36:35;;;;;;;17.77;6.85;;;3.90;1.00;;;;;;5092018;28;20426;-59
2022/12/07 05:39:01;;;;;;;14.00;6.75;;;3.90;1.00;;;;;;5092691;28;20413;-59
2022/12/07 05:44:11;;;;;;;16.92;7.13;;;3.90;1.00;;;;;;5092850;28;20425;-59
2022/12/07 05:46:37;;;;;;;15.93;6.60;;;5.00;1.00;;;;;;5092357;28;20907;-59
2022/12/07 05:49:02;;;;;;;14.67;6.17;;;3.70;1.00;;;;;;5092979;28;20448;-59
2022/12/07 05:51:28;;;;;;;14.52;5.90;;;5.40;75.30;;;;;;5092062;28;20390;-59
2022/12/07 05:53:54;;;;;;;13.23;6.40;;;3.70;99.90;;;;;;5092722;28;20385;-60
2022/12/07 05:56:20;;;;;;;15.40;6.07;;;3.80;99.90;;;;;;5091957;28;20436;-60
2022/12/07 06:01:29;;;;;;;14.65;6.40;;;4.20;99.90;;;;;;5091749;28;20373;-59
2022/12/07 06:03:55;;;;;;;11.27;5.50;;;3.80;99.90;;;;;;5085655;28;20425;-59
2022/12/07 06:06:20;;;;;;;13.20;5.13;;;3.90;99.90;;;;;;5055427;28;20389;-59
2022/12/07 06:08:46;;;;;;;14.70;7.00;;;4.80;1.00;;;;;;5051659;28;20393;-59
2022/12/07 06:13:56;;;;;;;15.15;6.30;;;4.80;99.90;;;;;;5051930;28;20381;-59
2022/12/07 06:16:21;;;;;;;13.95;4.90;;;5.00;1.00;;;;;;5051228;28;20386;-59
2022/12/07 06:18:47;;;;;;;15.37;5.27;;;3.50;99.90;;;;;;5052152;28;20377;-59
2022/12/07 06:21:12;;;;;;;14.43;5.20;;;4.90;1.00;;;;;;5051786;28;20409;-59
2022/12/07 06:23:38;;;;;;;11.93;4.70;;;3.60;99.90;;;;;;5050702;28;20437;-59
2022/12/07 06:26:04;;;;;;;10.70;4.30;;;3.50;1.00;;;;;;5052048;28;20381;-59
2022/12/07 06:28:29;;;;;;;10.57;4.93;;;3.40;1.00;;;;;;5050843;28;20373;-59
2022/12/07 06:30:59;;;;;;;13.43;5.50;;;3.40;1.00;;;;;;5051511;28;20824;-60
2022/12/07 06:33:25;;;;;;;12.40;5.20;;;3.80;1.00;;;;;;5056949;28;20430;-59
2022/12/07 06:35:51;;;;;;;11.43;4.90;;;3.30;1.00;;;;;;5071842;28;20399;-59
2022/12/07 06:38:17;;;;;;;11.07;4.65;;;3.40;1.00;;;;;;5071878;28;20380;-63
2022/12/07 06:40:42;;;;;;;12.90;5.00;;;3.40;1.00;;;;;;5061431;28;20401;-59
2022/12/07 06:43:08;;;;;;;11.37;4.80;;;3.50;99.90;;;;;;5070040;28;20427;-59
2022/12/07 06:45:33;;;;;;;12.13;5.25;;;3.50;99.90;;;;;;5071659;28;20445;-59
2022/12/07 06:47:59;;;;;;;13.30;4.83;;;4.10;52.10;;;;;;5071555;28;20479;-60
2022/12/07 06:50:25;;;;;;;11.68;4.88;;;3.50;1.00;;;;;;5070476;28;20456;-59
2022/12/07 06:52:51;;;;;;;10.45;4.60;;;3.60;1.00;;;;;;5052783;28;20380;-60
2022/12/07 06:55:17;;;;;;;11.30;4.43;;;3.70;99.90;;;;;;5070745;28;20387;-64
2022/12/07 06:57:43;;;;;;;10.68;4.40;;;3.70;99.90;;;;;;5071096;28;20376;-59
2022/12/07 07:00:09;;;;;;;10.73;4.60;;;3.70;17.40;;;;;;5070749;28;20380;-59
2022/12/07 07:02:34;;;;;;;11.63;4.78;;;3.60;1.00;;;;;;5069978;28;20379;-60
2022/12/07 07:05:00;;;;;;;14.77;5.10;;;3.70;1.00;;;;;;5063187;28;20813;-59
2022/12/07 07:07:26;;;;;;;9.98;4.13;;;5.30;1.00;;;;;;5070586;28;20391;-59
2022/12/07 07:09:51;;;;;;;11.43;5.10;;;3.60;1.00;;;;;;5070836;28;20391;-60
2022/12/07 07:12:17;;;;;;;11.77;5.00;;;3.70;1.00;;;;;;5070926;28;20375;-59
2022/12/07 07:14:43;;;;;;;11.90;4.50;;;4.30;1.00;;;;;;5070491;28;20403;-59
2022/12/07 07:17:08;;;;;;;10.73;4.60;;;3.80;1.00;;;;;;5071078;28;20372;-59
2022/12/07 07:19:34;;;;;;;11.70;4.45;;;3.80;1.00;;;;;;5052119;28;20445;-60
2022/12/07 07:21:59;;;;;;;10.47;4.33;;;3.90;99.90;;;;;;5070611;28;20375;-59
2022/12/07 07:24:26;;;;;;;12.50;4.63;;;3.90;99.90;;;;;;5070328;28;20408;-59
2022/12/07 07:26:51;;;;;;;10.55;4.65;;;3.90;99.90;;;;;;5069433;28;20864;-59
2022/12/07 07:29:17;;;;;;;10.20;4.32;;;5.60;99.90;;;;;;5070220;28;20380;-60
2022/12/07 07:31:42;;;;;;;12.70;4.73;;;4.00;99.90;;;;;;5070068;28;20463;-59
2022/12/07 07:34:08;;;;;;;9.43;3.95;;;4.10;53.30;;;;;;5070735;28;20733;-60
2022/12/07 07:36:33;;;;;;;10.67;4.20;;;4.90;1.00;;;;;;5069432;28;20411;-60
2022/12/07 07:38:59;;;;;;;10.85;4.10;;;4.10;1.00;;;;;;5070431;28;20868;-60
2022/12/07 07:41:25;;;;;;;11.23;4.17;;;4.20;1.00;;;;;;5069816;28;20379;-59
2022/12/07 07:43:50;;;;;;;8.95;4.20;;;5.90;1.00;;;;;;5052706;28;20498;-60
2022/12/07 07:46:16;;;;;;;12.57;5.00;;;4.20;1.00;;;;;;5070245;28;20380;-59
2022/12/07 07:48:41;;;;;;;10.77;4.25;;;4.30;1.00;;;;;;5069861;28;20376;-59
2022/12/07 07:51:08;;;;;;;10.17;4.27;;;4.40;99.90;;;;;;5069951;28;20411;-59
2022/12/07 07:53:33;;;;;;;9.00;3.50;;;6.00;99.90;;;;;;5069486;28;21210;-60
2022/12/07 07:55:59;;;;;;;10.37;4.80;;;5.00;99.90;;;;;;5069409;28;20395;-60
2022/12/07 07:58:25;;;;;;;12.38;4.28;;;4.60;99.90;;;;;;5069391;28;20372;-60
2022/12/07 08:00:51;;;;;;;11.25;4.32;;;4.60;99.90;;;;;;5069768;28;20431;-59
2022/12/07 08:03:17;;;;;;;10.10;3.63;;;6.10;99.80;;;;;;5069846;28;20419;-59
2022/12/07 08:05:42;;;;;;;11.32;4.40;;;4.70;79.80;;;;;;5068874;28;20410;-59
2022/12/07 08:08:08;;;;;;;12.43;4.32;;;4.60;1.00;;;;;;5070560;28;20463;-59
2022/12/07 08:10:35;;;;;;;11.33;3.77;;;4.70;1.00;;;;;;5069349;28;21266;-60
2022/12/07 08:13:16;;;;;;;10.48;3.92;;;4.90;1.00;;;;;;5069975;28;20380;-59
2022/12/07 08:15:47;;;;;;;11.27;4.28;;;6.00;1.00;;;;;;5068970;28;20368;-59
2022/12/07 08:18:14;;;;;;;13.40;4.00;;;4.90;1.00;;;;;;5069732;28;20376;-59
2022/12/07 08:20:41;;;;;;;9.70;3.38;;;5.90;99.90;;;;;;5069378;28;20426;-60
2022/12/07 08:23:08;;;;;;;10.45;4.55;;;6.20;99.90;;;;;;5069464;28;20385;-60
2022/12/07 08:25:34;;;;;;;10.95;4.03;;;5.10;99.90;;;;;;5068944;28;20444;-61
2022/12/07 08:28:00;;;;;;;10.30;4.30;;;5.10;99.90;;;;;;5069409;28;20383;-60
2022/12/07 08:30:26;;;;;;;10.90;4.43;;;5.10;99.90;;;;;;5068679;28;20495;-60
2022/12/07 08:32:52;;;;;;;10.25;3.75;;;5.20;99.90;;;;;;5069949;28;20783;-60
2022/12/07 08:35:17;;;;;;;15.10;4.90;;;6.10;99.90;;;;;;5069640;28;20423;-60
2022/12/07 08:37:43;;;;;;;10.20;4.20;;;5.20;99.90;;;;;;5068968;28;20418;-60
2022/12/07 08:40:10;;;;;;;10.83;4.60;;;5.50;99.90;;;;;;5069434;28;20375;-60
2022/12/07 08:42:39;;;;;;;9.10;3.60;;;5.30;99.90;;;;;;5068891;28;20391;-62
2022/12/07 08:45:11;;;;;;;10.18;4.20;;;5.50;96.10;;;;;;5069580;28;20992;-60
2022/12/07 08:47:41;;;;;;;9.30;3.60;;;5.40;80.80;;;;;;5069492;28;20428;-61
2022/12/07 08:50:09;;;;;;;9.38;3.20;;;5.30;28.70;;;;;;5070312;28;20465;-60
2022/12/07 08:52:36;;;;;;;9.43;3.47;;;5.30;20.40;;;;;;5068834;28;20371;-61
2022/12/07 08:55:03;;;;;;;11.40;3.90;;;6.40;22.60;;;;;;5069655;28;20387;-60
2022/12/07 08:57:29;;;;;;;15.38;3.92;;;5.40;1.00;;;;;;5068924;28;20380;-60
2022/12/07 08:59:54;;;;;;;9.70;3.92;;;5.50;1.00;;;;;;5069517;28;20421;-60
2022/12/07 09:02:20;;;;;;;10.90;4.00;;;5.60;1.00;;;;;;5069058;28;20471;-60
2022/12/07 09:04:46;;;;;;;9.35;3.75;;;6.10;1.00;;;;;;5069531;28;20404;-60
2022/12/07 09:07:11;;;;;;;8.70;3.27;;;7.10;1.00;;;;;;5070770;28;20396;-60
2022/12/07 09:09:37;;;;;;;10.80;3.70;;;6.10;1.00;;;;;;5072727;28;20402;-60
2022/12/07 09:12:03;;;;;;;8.23;3.00;;;6.10;1.00;;;;;;5073087;28;20463;-60
2022/12/07 09:14:29;;;;;;;9.87;3.50;;;6.10;1.00;;;;;;5072523;28;20388;-60
2022/12/07 09:16:54;;;;;;;7.50;2.58;;;6.10;1.00;;;;;;5073444;28;20428;-60
2022/12/07 09:19:20;;;;;;;7.73;2.80;;;7.40;1.00;;;;;;5054408;28;20726;-65
2022/12/07 09:21:45;;;;;;;9.00;2.90;;;7.30;1.00;;;;;;5055186;28;20427;-60
2022/12/07 09:24:12;;;;;;;9.13;3.30;;;6.40;1.00;;;;;;5072430;28;20462;-60
2022/12/07 09:26:40;;;;;;;10.00;2.50;;;6.40;1.00;;;;;;5072238;28;20417;-60
2022/12/07 09:29:06;;;;;;;9.03;2.67;;;6.60;1.00;;;;;;5072865;28;20455;-60
2022/12/07 09:31:31;;;;;;;10.27;3.28;;;7.30;1.00;;;;;;5071975;28;20565;-60
2022/12/07 09:34:00;;;;;;;7.07;2.35;;;5.60;1.00;;;;;;5072955;28;20398;-61
2022/12/07 09:36:26;;;;;;;8.05;2.40;;;5.60;1.00;;;;;;5071421;28;20499;-61
2022/12/07 09:38:52;;;;;;;11.82;3.75;;;5.80;1.00;;;;;;5072882;28;20433;-61
2022/12/07 09:41:18;;;;;;;9.77;3.70;;;6.80;1.00;;;;;;5072756;28;20384;-61
2022/12/07 09:43:45;;;;;;;8.50;3.20;;;5.90;1.00;;;;;;5071842;28;20443;-61
2022/12/07 09:46:16;;;;;;;10.30;3.30;;;6.60;1.00;;;;;;5072415;28;20390;-61
2022/12/07 09:48:43;;;;;;;9.30;3.50;;;6.00;1.00;;;;;;5071449;28;20440;-61
2022/12/07 09:51:22;;;;;;;9.05;3.42;;;6.20;1.00;;;;;;5072506;28;20395;-61
2022/12/07 09:53:48;;;;;;;9.60;3.20;;;6.30;1.00;;;;;;5071822;28;20391;-61
2022/12/07 09:56:16;;;;;;;7.88;3.10;;;6.10;1.00;;;;;;5072438;28;20375;-60
2022/12/07 09:58:43;;;;;;;9.20;3.17;;;6.60;1.00;;;;;;5072026;28;20865;-61
2022/12/07 10:01:09;;;;;;;10.70;3.43;;;5.90;1.00;;;;;;5071889;28;20461;-61
2022/12/07 10:03:39;;;;;;;8.47;3.00;;;5.90;1.00;;;;;;5070731;28;20459;-61
2022/12/07 10:06:07;;;;;;;9.57;3.60;;;5.80;1.00;;;;;;5071686;28;20402;-61
2022/12/07 10:08:33;;;;;;;9.02;2.80;;;5.80;1.00;;;;;;5071130;28;20391;-61
2022/12/07 10:11:03;;;;;;;10.30;2.90;;;5.80;1.00;;;;;;5072402;28;20380;-60
2022/12/07 10:13:40;;;;;;;10.18;2.42;;;5.80;1.00;;;;;;5071771;28;20387;-60
2022/12/07 10:16:24;;;;;;;8.27;2.80;;;5.80;1.00;;;;;;5071913;28;20985;-60
2022/12/07 10:18:51;;;;;;;7.68;2.35;;;5.70;1.00;;;;;;5071785;28;20376;-60
2022/12/07 10:21:24;;;;;;;10.20;2.90;;;6.40;1.00;;;;;;5071566;28;20854;-60
2022/12/07 10:24:04;;;;;;;8.13;2.75;;;5.90;1.00;;;;;;5072027;28;20441;-60
2022/12/07 10:26:32;;;;;;;8.73;2.33;;;5.90;1.00;;;;;;5070999;28;20912;-62
2022/12/07 10:29:21;;;;;;;8.53;2.70;;;5.90;1.00;;;;;;5071667;28;20372;-61
2022/12/07 10:31:57;;;;;;;8.48;2.88;;;6.00;1.00;;;;;;5071472;28;20380;-60
2022/12/07 10:34:25;;;;;;;8.02;2.13;;;6.10;1.00;;;;;;5070782;28;20418;-64
2022/12/07 10:36:52;;;;;;;8.73;2.73;;;6.10;5.40;;;;;;5072255;28;20413;-61
2022/12/07 10:39:20;;;;;;;7.60;2.50;;;5.90;1.50;;;;;;5071847;28;20411;-61
2022/12/07 10:42:00;;;;;;;8.30;2.40;;;5.80;24.70;;;;;;5071006;28;20417;-60
2022/12/07 10:44:28;;;;;;;7.47;2.70;;;5.60;99.90;;;;;;5070215;28;20904;-61
2022/12/07 10:47:03;;;;;;;8.98;2.28;;;5.70;99.90;;;;;;5071003;28;20387;-60
2022/12/07 10:49:58;;;;;;;8.18;2.90;;;5.60;99.90;;;;;;5070168;28;20386;-60
2022/12/07 10:52:46;;;;;;;6.97;2.70;;;5.60;99.90;;;;;;5066305;28;20483;-61
2022/12/07 10:55:21;;;;;;;10.60;3.50;;;5.80;99.90;;;;;;5070797;28;20395;-60
2022/12/07 10:58:04;;;;;;;8.07;2.70;;;5.90;99.90;;;;;;5071166;28;20521;-60
2022/12/07 11:00:56;;;;;;;9.52;3.67;;;5.80;99.90;;;;;;5070855;28;20359;-60
2022/12/07 11:03:27;;;;;;;8.33;3.10;;;5.80;99.90;;;;;;5069179;28;20438;-62
2022/12/07 11:06:09;;;;;;;12.13;3.35;;;5.90;99.90;;;;;;5070815;28;20477;-61
2022/12/07 11:08:53;;;;;;;9.98;3.15;;;5.80;99.90;;;;;;5070298;28;20372;-61
2022/12/07 11:11:37;;;;;;;10.05;3.05;;;5.70;99.90;;;;;;5070561;28;20387;-60
2022/12/07 11:14:13;;;;;;;10.70;3.65;;;5.50;1.00;;;;;;5070263;28;20384;-60
2022/12/07 11:17:03;;;;;;;11.45;4.10;;;5.40;6.70;;;;;;5052043;28;20752;-60
2022/12/07 11:19:35;;;;;;;10.60;3.90;;;5.30;56.00;;;;;;5070048;28;20730;-60
2022/12/07 11:22:05;;;;;;;11.57;4.10;;;5.30;1.00;;;;;;5070589;28;20904;-60
2022/12/07 11:24:49;;;;;;;15.80;4.28;;;5.40;59.30;;;;;;5069821;28;20435;-60
2022/12/07 11:27:25;;;;;;;15.32;4.30;;;5.50;99.90;;;;;;5070801;28;20398;-60
2022/12/07 11:30:06;;;;;;;9.85;3.90;;;5.50;38.70;;;;;;5069956;28;20407;-60
2022/12/07 11:33:07;;;;;;;14.15;4.15;;;5.50;1.00;;;;;;5070092;28;20371;-60
2022/12/07 11:35:51;;;;;;;11.63;4.43;;;5.30;1.00;;;;;;5069842;28;20403;-59
2022/12/07 11:38:23;;;;;;;12.30;5.13;;;5.40;15.20;;;;;;5070301;28;20399;-59
2022/12/07 11:40:50;;;;;;;12.75;4.10;;;5.40;1.00;;;;;;5070090;28;20376;-60
2022/12/07 11:43:59;;;;;;;14.52;4.80;;;5.50;1.00;;;;;;5070509;28;20854;-60
2022/12/07 11:46:31;;;;;;;12.57;4.50;;;5.50;1.00;;;;;;5030536;28;20439;-59
2022/12/07 11:49:41;;;;;;;12.57;4.10;;;5.60;1.00;;;;;;5069989;28;20719;-59
2022/12/07 11:52:17;;;;;;;10.70;5.00;;;5.50;1.00;;;;;;5048815;28;20399;-59
2022/12/07 11:54:45;;;;;;;11.05;4.72;;;5.50;1.00;;;;;;5069461;28;20415;-60
2022/12/07 11:57:40;;;;;;;13.10;5.05;;;5.80;1.00;;;;;;5070031;28;20383;-59
2022/12/07 12:00:14;;;;;;;10.68;4.60;;;5.80;1.00;;;;;;5062886;28;20387;-59
2022/12/07 12:03:01;;;;;;;11.27;4.45;;;5.70;1.00;;;;;;5069266;28;20387;-60
2022/12/07 12:05:28;;;;;;;12.05;4.90;;;5.70;1.00;;;;;;5069100;28;20490;-59
2022/12/07 12:08:11;;;;;;;11.57;4.87;;;5.60;1.00;;;;;;5070295;28;20383;-59
2022/12/07 12:11:01;;;;;;;12.48;5.13;;;6.60;1.00;;;;;;5069111;28;20404;-59
2022/12/07 12:13:41;;;;;;;10.80;3.80;;;5.60;1.00;;;;;;5069109;28;20394;-63
2022/12/07 12:16:10;;;;;;;11.95;4.45;;;5.40;1.00;;;;;;5069787;28;20379;-59
2022/12/07 12:18:50;;;;;;;13.40;5.33;;;6.60;1.00;;;;;;5069254;28;20392;-59
2022/12/07 12:21:26;;;;;;;12.75;5.30;;;5.70;1.00;;;;;;5069898;28;20388;-59
2022/12/07 12:24:03;;;;;;;12.38;4.63;;;5.60;1.00;;;;;;5069556;28;20940;-59
2022/12/07 12:26:31;;;;;;;13.02;5.47;;;5.60;1.00;;;;;;5068830;28;20938;-59
2022/12/07 12:29:04;;;;;;;11.27;4.87;;;5.70;1.00;;;;;;5069703;28;20376;-59
2022/12/07 12:31:32;;;;;;;13.47;5.23;;;7.00;1.00;;;;;;5069225;28;20437;-59
2022/12/07 12:34:01;;;;;;;11.57;4.40;;;5.60;1.00;;;;;;5069276;28;20490;-59
2022/12/07 12:36:44;;;;;;;11.27;4.60;;;5.40;1.00;;;;;;5068486;28;20408;-63
2022/12/07 12:39:10;;;;;;;12.05;4.90;;;5.40;1.00;;;;;;5069303;28;20410;-60
2022/12/07 12:42:05;;;;;;;13.00;4.80;;;5.40;1.00;;;;;;5069785;28;20375;-59
2022/12/07 12:44:33;;;;;;;13.98;5.20;;;6.90;1.00;;;;;;5072431;28;20877;-59
2022/12/07 12:47:04;;;;;;;13.35;5.75;;;5.30;1.00;;;;;;5073900;28;20423;-59
2022/12/07 12:49:37;;;;;;;11.27;4.97;;;5.60;1.00;;;;;;5073209;28;20390;-59
2022/12/07 12:52:15;;;;;;;12.02;5.70;;;5.60;1.00;;;;;;5073299;28;20368;-59
2022/12/07 12:55:11;;;;;;;12.35;5.47;;;5.70;1.00;;;;;;5072427;28;20423;-59
2022/12/07 12:57:37;;;;;;;12.65;5.45;;;5.70;1.00;;;;;;5072744;28;20380;-59
2022/12/07 13:00:15;;;;;;;13.02;5.50;;;5.70;1.00;;;;;;5073340;28;20861;-59
2022/12/07 13:02:54;;;;;;;13.90;6.30;;;5.50;1.00;;;;;;5073079;28;20471;-58
2022/12/07 13:05:30;;;;;;;14.85;6.63;;;5.60;1.00;;;;;;5073640;28;20415;-59
2022/12/07 13:08:15;;;;;;;14.50;5.40;;;7.10;1.00;;;;;;5072747;28;20744;-59
2022/12/07 13:10:43;;;;;;;16.50;6.70;;;6.30;1.00;;;;;;5072494;28;20496;-60
2022/12/07 13:13:15;;;;;;;16.00;6.18;;;5.60;1.00;;;;;;5072710;28;20876;-59
2022/12/07 13:15:45;;;;;;;16.38;6.88;;;5.70;1.00;;;;;;5072317;28;20388;-59
2022/12/07 13:18:25;;;;;;;18.95;7.88;;;5.60;1.00;;;;;;5072913;28;20419;-60
2022/12/07 13:20:52;;;;;;;15.70;6.90;;;6.60;1.00;;;;;;5072515;28;20853;-60
2022/12/07 13:23:24;;;;;;;14.45;5.45;;;5.70;1.00;;;;;;5072987;28;20749;-60
2022/12/07 13:26:13;;;;;;;15.05;6.60;;;6.30;1.00;;;;;;5072222;28;20514;-60